Kennicott — WCY2920 — position and weather

sailwx.info

Track history (hours):
 
Tides and Currents Weather Stations Pressure Air Temp Water Temp Dewpoint Dewpoint Depression Visibility Wind Speed Wind Dir Waves Ship Positions

Kennicott

Owner: ALASKA, STATE OF, Anchorage, AK. More information available from US FCC via Universal Licensing System and Coast Guard Vessel Documentation Center.

Last reported at 2018-Jun-13 00:38 UTC. Time now 2018-Jun-19 20:04 UTC.
Position N 58°14' W 136°21'.

Type: Passenger vessel. MMSI: 368250000.

Date/timePositionNaut miles runAvg speedWind from/ knotsBaromVisibWave heightAir tempDewpointWater temp
2018-Jun-13 00:38N 58°14' W 136°21'216.9
2018-Jun-13 00:30N 58°14' W 136°16'918.6
2018-Jun-13 00:00N 58°16' W 135°59'917.2
2018-Jun-12 23:31N 58°17' W 135°43'916.8
2018-Jun-12 23:00N 58°14' W 135°28'249 7.3
2018-Jun-11 12:54N 54°42' W 131°31'717.6
2018-Jun-11 12:30N 54°36' W 131°23'917.7
2018-Jun-11 12:00N 54°29' W 131°14'917.2
2018-Jun-11 11:30N 54°22' W 131°06'917.4
2018-Jun-11 11:00N 54°14' W 131°02'917.2
2018-Jun-11 10:30N 54°05' W 130°59'816.9
2018-Jun-11 10:00N 53°57' W 130°57'815.7
2018-Jun-11 09:30N 53°51' W 130°48'917.0
2018-Jun-11 08:59N 53°45' W 130°37'1016.9
2018-Jun-11 08:24N 53°39' W 130°24'1116.7
2018-Jun-11 07:46N 53°33' W 130°09'1116.7
2018-Jun-11 07:06N 53°25' W 129°55'7012.0
2018-Jun-11 01:13N 52°36' W 128°31'2 7.9
2018-Jun-11 01:00N 52°35' W 128°31'713.1
2018-Jun-11 00:30N 52°29' W 128°27'815.4
2018-Jun-11 00:00N 52°21' W 128°32'612.4
2018-Jun-10 23:30N 52°16' W 128°28'916.6
2018-Jun-10 23:00N 52°14' W 128°14'511.1
2018-Jun-10 22:30N 52°11' W 128°07'4 8.6
2018-Jun-10 22:00N 52°06' W 128°07'815.1
2018-Jun-10 21:31N 52°04' W 127°56'815.8
2018-Jun-10 21:01N 51°56' W 127°56'816.0
2018-Jun-10 20:31N 51°48' W 127°56'816.1
2018-Jun-10 20:01N 51°40' W 127°54'816.0
2018-Jun-10 19:30N 51°32' W 127°52'816.1
2018-Jun-10 19:00N 51°24' W 127°51'815.9
2018-Jun-10 18:31N 51°16' W 127°53'815.8
2018-Jun-10 18:00N 51°08' W 127°50'816.3
2018-Jun-10 17:30N 51°03' W 127°39'815.7
2018-Jun-10 17:00N 50°58' W 127°31'815.8
2018-Jun-10 16:30N 50°53' W 127°20'816.3
2018-Jun-10 16:00N 50°49' W 127°10'816.3
2018-Jun-10 15:30N 50°44' W 126°59'916.2
2018-Jun-10 14:57N 50°38' W 126°48'1216.4
2018-Jun-10 14:14N 50°30' W 126°35'3217.7
2018-Jun-10 12:25N 50°22' W 125°46'818.3
2018-Jun-10 11:58N 50°22' W 125°33'715.4
2018-Jun-10 11:30N 50°17' W 125°24'917.2
2018-Jun-10 11:00N 50°09' W 125°21'815.3
2018-Jun-10 10:30N 50°03' W 125°14'713.2
2018-Jun-10 10:00N 49°57' W 125°08'815.6
2018-Jun-10 09:30N 49°52' W 124°59'816.4
2018-Jun-10 09:01N 49°46' W 124°50'816.6
2018-Jun-10 08:30N 49°40' W 124°42'916.7
2018-Jun-10 08:00N 49°34' W 124°32'816.4
2018-Jun-10 07:30N 49°28' W 124°23'815.5
2018-Jun-10 07:00N 49°25' W 124°13'816.0
2018-Jun-10 06:30N 49°23' W 124°01'816.3
2018-Jun-10 06:00N 49°21' W 123°49'816.3
2018-Jun-10 05:31N 49°16' W 123°40'917.0
2018-Jun-10 05:00N 49°10' W 123°30'916.4
2018-Jun-10 04:28N 49°04' W 123°20'816.4
2018-Jun-10 04:01N 48°58' W 123°12'816.6
2018-Jun-10 03:30N 48°53' W 123°02'816.4
2018-Jun-10 03:00N 48°48' W 122°52'815.6
2018-Jun-10 02:31N 48°43' W 122°44'815.3
2018-Jun-10 02:01N 48°38' W 122°34'611.3
2018-Jun-10 01:30N 48°44' W 122°31'0 0.6
2018-Jun-10 00:58N 48°43' W 122°31'0 0.0
2018-Jun-10 00:28N 48°43' W 122°31'0 0.0
2018-Jun-09 23:55N 48°43' W 122°31'0 0.0
2018-Jun-09 23:28N 48°43' W 122°31'0 0.0
2018-Jun-09 22:49N 48°43' W 122°31'0 0.0
2018-Jun-09 22:25N 48°43' W 122°31'0 0.0
2018-Jun-09 21:55N 48°43' W 122°31'0 0.0
2018-Jun-09 21:28N 48°43' W 122°31'0 0.0
2018-Jun-09 20:58N 48°43' W 122°31'0 0.0
2018-Jun-09 20:25N 48°43' W 122°31'0 0.0
2018-Jun-09 19:58N 48°43' W 122°31'0 0.0
2018-Jun-09 19:16N 48°43' W 122°31'0 0.0
2018-Jun-09 18:58N 48°43' W 122°31'0 0.0
2018-Jun-09 18:28N 48°43' W 122°31'0 0.0
2018-Jun-09 17:58N 48°43' W 122°31'0 0.0
2018-Jun-09 17:28N 48°43' W 122°31'0 0.0
2018-Jun-09 16:58N 48°43' W 122°31'0 0.0
2018-Jun-09 16:28N 48°43' W 122°31'0 0.0
2018-Jun-09 15:58N 48°43' W 122°31'0 0.0
2018-Jun-09 14:58N 48°43' W 122°31'0 0.3
2018-Jun-09 14:30N 48°43' W 122°31'611.8
2018-Jun-09 14:00N 48°38' W 122°34'815.2
2018-Jun-09 13:30N 48°42' W 122°45'5 9.2
2018-Jun-09 13:00N 48°45' W 122°49'510.3
2018-Jun-09 12:30N 48°48' W 122°55'714.3
2018-Jun-09 11:59N 48°52' W 123°05'815.8
2018-Jun-09 11:30N 48°57' W 123°13'815.7
2018-Jun-09 11:00N 49°03' W 123°22'816.3
2018-Jun-09 10:30N 49°08' W 123°31'1116.9
2018-Jun-09 09:51N 49°17' W 123°42'617.3
2018-Jun-09 09:29N 49°21' W 123°49'816.5
2018-Jun-09 09:00N 49°26' W 123°59'816.4
2018-Jun-09 08:30N 49°32' W 124°07'816.9
2018-Jun-09 08:00N 49°39' W 124°15'815.7
2018-Jun-09 07:30N 49°44' W 124°24'815.3
2018-Jun-09 07:00N 49°48' W 124°34'815.2
2018-Jun-09 06:30N 49°54' W 124°40'815.4
2018-Jun-09 06:00N 49°59' W 124°50'714.2
2018-Jun-09 05:30N 49°59' W 125°01'714.0
2018-Jun-09 05:00N 49°59' W 125°12'611.9
2018-Jun-09 04:30N 50°05' W 125°16'715.0
2018-Jun-09 04:00N 50°11' W 125°22'815.5
2018-Jun-09 03:28N 50°19' W 125°25'1014.6
2018-Jun-09 02:47N 50°22' W 125°40'415.5
2018-Jun-09 02:30N 50°22' W 125°47'3515.2
2018-Jun-09 00:11N 50°32' W 126°40'513.8
2018-Jun-08 23:51N 50°36' W 126°44'716.3
2018-Jun-08 23:27N 50°40' W 126°52'716.4
2018-Jun-08 23:00N 50°45' W 127°00'816.0
2018-Jun-08 22:30N 50°50' W 127°11'816.3
2018-Jun-08 22:00N 50°54' W 127°22'815.2
2018-Jun-08 21:30N 50°58' W 127°32'714.3
2018-Jun-08 21:00N 51°03' W 127°40'714.7
2018-Jun-08 20:30N 51°08' W 127°48'814.8
2018-Jun-08 19:59N 51°15' W 127°53'815.8
2018-Jun-08 19:30N 51°23' W 127°51'815.9
2018-Jun-08 19:00N 51°31' W 127°52'815.8
2018-Jun-08 18:30N 51°39' W 127°54'816.2
2018-Jun-08 18:00N 51°47' W 127°56'816.4
2018-Jun-08 17:30N 51°55' W 127°56'816.5
2018-Jun-08 17:00N 52°03' W 127°56'714.1
2018-Jun-08 16:30N 52°05' W 128°07'510.1
2018-Jun-08 16:00N 52°10' W 128°08'4 8.6
2018-Jun-08 15:31N 52°14' W 128°12'815.9
2018-Jun-08 15:00N 52°15' W 128°25'815.8
2018-Jun-08 14:31N 52°15' W 128°37'612.1
2018-Jun-08 14:01N 52°16' W 128°47'815.4
2018-Jun-08 13:31N 52°23' W 128°50'815.4
2018-Jun-08 13:01N 52°31' W 128°52'814.7
2018-Jun-08 12:28N 52°38' W 128°56'3315.4
2018-Jun-08 10:18N 53°04' W 129°33'4915.6
2018-Jun-08 07:10N 53°40' W 130°28'215.8
2018-Jun-08 07:00N 53°42' W 130°31'815.4
2018-Jun-08 06:30N 53°47' W 130°41'815.1
2018-Jun-08 06:00N 53°51' W 130°51'713.7
2018-Jun-08 05:30N 53°57' W 130°56'714.5
2018-Jun-08 05:00N 54°04' W 130°59'714.7
2018-Jun-08 04:30N 54°12' W 131°01'714.9
2018-Jun-08 04:00N 54°19' W 131°04'815.0
2018-Jun-08 03:30N 54°26' W 131°09'265 7.8
2018-Jun-06 17:35N 58°12' W 135°16'213.3
2018-Jun-06 17:25N 58°13' W 135°20'614.0
2018-Jun-06 17:00N 58°15' W 135°30'714.3
2018-Jun-06 16:30N 58°17' W 135°43'815.6
2018-Jun-06 16:00N 58°19' W 135°57'815.6
2018-Jun-06 15:30N 58°19' W 136°12'1115.4
2018-Jun-06 14:48N 58°14' W 136°31'515.6
2018-Jun-06 14:30N 58°11' W 136°37'10315.8
2018-Jun-06 08:00N 59°10' W 139°18'348 8.9
2018-Jun-04 17:00N 58°42' W 150°30'   090 / 4
Track history (hours):
 
Tides and Currents Weather Stations Pressure Air Temp Water Temp Dewpoint Dewpoint Depression Visibility Wind Speed Wind Dir Waves Ship Positions

Kennicott

Owner: ALASKA, STATE OF, Anchorage, AK. More information available from US FCC via Universal Licensing System and Coast Guard Vessel Documentation Center.

Last reported at 2018-Jun-13 00:38 UTC. Time now 2018-Jun-19 20:04 UTC.
Position N 58°14' W 136°21'.

Type: Passenger vessel. MMSI: 368250000.

Date/timePositionNaut miles runAvg speedWind from/ knotsBaromVisibWave heightAir tempDewpointWater temp
2018-Jun-13 00:38N 58°14' W 136°21'216.9
2018-Jun-13 00:30N 58°14' W 136°16'918.6
2018-Jun-13 00:00N 58°16' W 135°59'917.2
2018-Jun-12 23:31N 58°17' W 135°43'916.8
2018-Jun-12 23:00N 58°14' W 135°28'249 7.3
2018-Jun-11 12:54N 54°42' W 131°31'717.6
2018-Jun-11 12:30N 54°36' W 131°23'917.7
2018-Jun-11 12:00N 54°29' W 131°14'917.2
2018-Jun-11 11:30N 54°22' W 131°06'917.4
2018-Jun-11 11:00N 54°14' W 131°02'917.2
2018-Jun-11 10:30N 54°05' W 130°59'816.9
2018-Jun-11 10:00N 53°57' W 130°57'815.7
2018-Jun-11 09:30N 53°51' W 130°48'917.0
2018-Jun-11 08:59N 53°45' W 130°37'1016.9
2018-Jun-11 08:24N 53°39' W 130°24'1116.7
2018-Jun-11 07:46N 53°33' W 130°09'1116.7
2018-Jun-11 07:06N 53°25' W 129°55'7012.0
2018-Jun-11 01:13N 52°36' W 128°31'2 7.9
2018-Jun-11 01:00N 52°35' W 128°31'713.1
2018-Jun-11 00:30N 52°29' W 128°27'815.4
2018-Jun-11 00:00N 52°21' W 128°32'612.4
2018-Jun-10 23:30N 52°16' W 128°28'916.6
2018-Jun-10 23:00N 52°14' W 128°14'511.1
2018-Jun-10 22:30N 52°11' W 128°07'4 8.6
2018-Jun-10 22:00N 52°06' W 128°07'815.1
2018-Jun-10 21:31N 52°04' W 127°56'815.8
2018-Jun-10 21:01N 51°56' W 127°56'816.0
2018-Jun-10 20:31N 51°48' W 127°56'816.1
2018-Jun-10 20:01N 51°40' W 127°54'816.0
2018-Jun-10 19:30N 51°32' W 127°52'816.1
2018-Jun-10 19:00N 51°24' W 127°51'815.9
2018-Jun-10 18:31N 51°16' W 127°53'815.8
2018-Jun-10 18:00N 51°08' W 127°50'816.3
2018-Jun-10 17:30N 51°03' W 127°39'815.7
2018-Jun-10 17:00N 50°58' W 127°31'815.8
2018-Jun-10 16:30N 50°53' W 127°20'816.3
2018-Jun-10 16:00N 50°49' W 127°10'816.3
2018-Jun-10 15:30N 50°44' W 126°59'916.2
2018-Jun-10 14:57N 50°38' W 126°48'1216.4
2018-Jun-10 14:14N 50°30' W 126°35'3217.7
2018-Jun-10 12:25N 50°22' W 125°46'818.3
2018-Jun-10 11:58N 50°22' W 125°33'715.4
2018-Jun-10 11:30N 50°17' W 125°24'917.2
2018-Jun-10 11:00N 50°09' W 125°21'815.3
2018-Jun-10 10:30N 50°03' W 125°14'713.2
2018-Jun-10 10:00N 49°57' W 125°08'815.6
2018-Jun-10 09:30N 49°52' W 124°59'816.4
2018-Jun-10 09:01N 49°46' W 124°50'816.6
2018-Jun-10 08:30N 49°40' W 124°42'916.7
2018-Jun-10 08:00N 49°34' W 124°32'816.4
2018-Jun-10 07:30N 49°28' W 124°23'815.5
2018-Jun-10 07:00N 49°25' W 124°13'816.0
2018-Jun-10 06:30N 49°23' W 124°01'816.3
2018-Jun-10 06:00N 49°21' W 123°49'816.3
2018-Jun-10 05:31N 49°16' W 123°40'917.0
2018-Jun-10 05:00N 49°10' W 123°30'916.4
2018-Jun-10 04:28N 49°04' W 123°20'816.4
2018-Jun-10 04:01N 48°58' W 123°12'816.6
2018-Jun-10 03:30N 48°53' W 123°02'816.4
2018-Jun-10 03:00N 48°48' W 122°52'815.6
2018-Jun-10 02:31N 48°43' W 122°44'815.3
2018-Jun-10 02:01N 48°38' W 122°34'611.3
2018-Jun-10 01:30N 48°44' W 122°31'0 0.6
2018-Jun-10 00:58N 48°43' W 122°31'0 0.0
2018-Jun-10 00:28N 48°43' W 122°31'0 0.0
2018-Jun-09 23:55N 48°43' W 122°31'0 0.0
2018-Jun-09 23:28N 48°43' W 122°31'0 0.0
2018-Jun-09 22:49N 48°43' W 122°31'0 0.0
2018-Jun-09 22:25N 48°43' W 122°31'0 0.0
2018-Jun-09 21:55N 48°43' W 122°31'0 0.0
2018-Jun-09 21:28N 48°43' W 122°31'0 0.0
2018-Jun-09 20:58N 48°43' W 122°31'0 0.0
2018-Jun-09 20:25N 48°43' W 122°31'0 0.0
2018-Jun-09 19:58N 48°43' W 122°31'0 0.0
2018-Jun-09 19:16N 48°43' W 122°31'0 0.0
2018-Jun-09 18:58N 48°43' W 122°31'0 0.0
2018-Jun-09 18:28N 48°43' W 122°31'0 0.0
2018-Jun-09 17:58N 48°43' W 122°31'0 0.0
2018-Jun-09 17:28N 48°43' W 122°31'0 0.0
2018-Jun-09 16:58N 48°43' W 122°31'0 0.0
2018-Jun-09 16:28N 48°43' W 122°31'0 0.0
2018-Jun-09 15:58N 48°43' W 122°31'0 0.0
2018-Jun-09 14:58N 48°43' W 122°31'0 0.3
2018-Jun-09 14:30N 48°43' W 122°31'611.8
2018-Jun-09 14:00N 48°38' W 122°34'815.2
2018-Jun-09 13:30N 48°42' W 122°45'5 9.2
2018-Jun-09 13:00N 48°45' W 122°49'510.3
2018-Jun-09 12:30N 48°48' W 122°55'714.3
2018-Jun-09 11:59N 48°52' W 123°05'815.8
2018-Jun-09 11:30N 48°57' W 123°13'815.7
2018-Jun-09 11:00N 49°03' W 123°22'816.3
2018-Jun-09 10:30N 49°08' W 123°31'1116.9
2018-Jun-09 09:51N 49°17' W 123°42'617.3
2018-Jun-09 09:29N 49°21' W 123°49'816.5
2018-Jun-09 09:00N 49°26' W 123°59'816.4
2018-Jun-09 08:30N 49°32' W 124°07'816.9
2018-Jun-09 08:00N 49°39' W 124°15'815.7
2018-Jun-09 07:30N 49°44' W 124°24'815.3
2018-Jun-09 07:00N 49°48' W 124°34'815.2
2018-Jun-09 06:30N 49°54' W 124°40'815.4
2018-Jun-09 06:00N 49°59' W 124°50'714.2
2018-Jun-09 05:30N 49°59' W 125°01'714.0
2018-Jun-09 05:00N 49°59' W 125°12'611.9
2018-Jun-09 04:30N 50°05' W 125°16'715.0
2018-Jun-09 04:00N 50°11' W 125°22'815.5
2018-Jun-09 03:28N 50°19' W 125°25'1014.6
2018-Jun-09 02:47N 50°22' W 125°40'415.5
2018-Jun-09 02:30N 50°22' W 125°47'3515.2
2018-Jun-09 00:11N 50°32' W 126°40'513.8
2018-Jun-08 23:51N 50°36' W 126°44'716.3
2018-Jun-08 23:27N 50°40' W 126°52'716.4
2018-Jun-08 23:00N 50°45' W 127°00'816.0
2018-Jun-08 22:30N 50°50' W 127°11'816.3
2018-Jun-08 22:00N 50°54' W 127°22'815.2
2018-Jun-08 21:30N 50°58' W 127°32'714.3
2018-Jun-08 21:00N 51°03' W 127°40'714.7
2018-Jun-08 20:30N 51°08' W 127°48'814.8
2018-Jun-08 19:59N 51°15' W 127°53'815.8
2018-Jun-08 19:30N 51°23' W 127°51'815.9
2018-Jun-08 19:00N 51°31' W 127°52'815.8
2018-Jun-08 18:30N 51°39' W 127°54'816.2
2018-Jun-08 18:00N 51°47' W 127°56'816.4
2018-Jun-08 17:30N 51°55' W 127°56'816.5
2018-Jun-08 17:00N 52°03' W 127°56'714.1
2018-Jun-08 16:30N 52°05' W 128°07'510.1
2018-Jun-08 16:00N 52°10' W 128°08'4 8.6
2018-Jun-08 15:31N 52°14' W 128°12'815.9
2018-Jun-08 15:00N 52°15' W 128°25'815.8
2018-Jun-08 14:31N 52°15' W 128°37'612.1
2018-Jun-08 14:01N 52°16' W 128°47'815.4
2018-Jun-08 13:31N 52°23' W 128°50'815.4
2018-Jun-08 13:01N 52°31' W 128°52'814.7
2018-Jun-08 12:28N 52°38' W 128°56'3315.4
2018-Jun-08 10:18N 53°04' W 129°33'4915.6
2018-Jun-08 07:10N 53°40' W 130°28'215.8
2018-Jun-08 07:00N 53°42' W 130°31'815.4
2018-Jun-08 06:30N 53°47' W 130°41'815.1
2018-Jun-08 06:00N 53°51' W 130°51'713.7
2018-Jun-08 05:30N 53°57' W 130°56'714.5
2018-Jun-08 05:00N 54°04' W 130°59'714.7
2018-Jun-08 04:30N 54°12' W 131°01'714.9
2018-Jun-08 04:00N 54°19' W 131°04'815.0
2018-Jun-08 03:30N 54°26' W 131°09'265 7.8
2018-Jun-06 17:35N 58°12' W 135°16'213.3
2018-Jun-06 17:25N 58°13' W 135°20'614.0
2018-Jun-06 17:00N 58°15' W 135°30'714.3
2018-Jun-06 16:30N 58°17' W 135°43'815.6
2018-Jun-06 16:00N 58°19' W 135°57'815.6
2018-Jun-06 15:30N 58°19' W 136°12'1115.4
2018-Jun-06 14:48N 58°14' W 136°31'515.6
2018-Jun-06 14:30N 58°11' W 136°37'10315.8
2018-Jun-06 08:00N 59°10' W 139°18'348 8.9
2018-Jun-04 17:00N 58°42' W 150°30'   090 / 4

Dump ship's entire track history